createdAt,value
2019-04-24T00:03:08.592Z,9.88
2019-04-24T00:08:09.752Z,9.90
2019-04-24T00:10:38.603Z,9.73
2019-04-24T00:13:14.097Z,9.77
2019-04-24T00:18:37.472Z,9.86
2019-04-24T00:20:27.417Z,9.78
2019-04-24T00:23:17.377Z,9.59
2019-04-24T00:25:40.886Z,9.54
2019-04-24T00:28:09.978Z,9.50
2019-04-24T00:30:45.513Z,9.58
2019-04-24T00:36:19.939Z,9.67
2019-04-24T00:38:42.933Z,9.48
2019-04-24T00:41:12.847Z,9.35
2019-04-24T00:46:11.013Z,9.39
2019-04-24T00:53:46.286Z,9.85
2019-04-24T00:56:13.832Z,9.74
2019-04-24T00:58:34.203Z,9.57
2019-04-24T01:01:27.045Z,9.52
2019-04-24T01:04:15.666Z,9.57
2019-04-24T01:09:15.064Z,9.66
2019-04-24T01:11:59.709Z,9.68
2019-04-24T01:14:12.507Z,9.65
2019-04-24T01:17:10.304Z,9.48
2019-04-24T01:19:15.546Z,9.41
2019-04-24T01:21:49.423Z,9.55
2019-04-24T01:24:12.402Z,9.67
2019-04-24T01:26:47.939Z,9.80
2019-04-24T01:29:18.927Z,9.89
2019-04-24T01:31:59.708Z,9.99
2019-04-24T01:37:17.283Z,9.96
2019-04-24T01:40:00.404Z,9.99
2019-04-24T01:42:27.145Z,10.06
2019-04-24T01:49:53.242Z,9.93
2019-04-24T01:57:38.362Z,10.04
2019-04-24T01:59:56.345Z,10.17
2019-04-24T02:07:37.719Z,10.21
2019-04-24T02:17:45.027Z,10.39
2019-04-24T02:20:29.356Z,10.46
2019-04-24T02:22:49.745Z,10.53
2019-04-24T02:25:25.972Z,10.25
2019-04-24T02:28:15.585Z,10.27
2019-04-24T02:30:33.168Z,10.36
2019-04-24T02:35:47.107Z,10.45
2019-04-24T02:38:17.516Z,10.49
2019-04-24T02:40:46.807Z,10.55
2019-04-24T02:43:24.385Z,10.60
2019-04-24T02:46:06.058Z,10.61
2019-04-24T02:48:24.629Z,10.58
2019-04-24T02:53:19.979Z,10.47
2019-04-24T02:55:32.277Z,10.49
2019-04-24T02:58:29.472Z,10.54
2019-04-24T03:03:33.841Z,10.58
2019-04-24T03:11:02.548Z,10.50
2019-04-24T03:13:36.876Z,10.44
2019-04-24T03:18:43.792Z,10.34
2019-04-24T03:21:38.979Z,10.34
2019-04-24T03:23:42.403Z,10.34
2019-04-24T03:31:32.533Z,10.47
2019-04-24T03:34:02.611Z,10.47
2019-04-24T03:46:23.276Z,10.14
2019-04-24T03:52:04.144Z,10.23
2019-04-24T03:59:13.433Z,10.21
2019-04-24T04:01:52.198Z,10.19
2019-04-24T04:04:26.662Z,10.25
2019-04-24T04:14:24.410Z,10.36
2019-04-24T04:17:21.037Z,10.42
2019-04-24T04:24:51.104Z,10.59
2019-04-24T04:27:31.099Z,10.59
2019-04-24T04:30:15.681Z,10.65
2019-04-24T04:37:46.341Z,10.44
2019-04-24T04:45:14.016Z,10.51
2019-04-24T04:47:35.119Z,10.80
2019-04-24T04:58:07.223Z,10.81
2019-04-24T05:03:23.932Z,10.68
2019-04-24T05:08:39.446Z,10.78
2019-04-24T05:10:53.701Z,10.98
2019-04-24T05:13:13.453Z,10.69
2019-04-24T05:16:00.531Z,10.68
2019-04-24T05:18:26.902Z,10.83
2019-04-24T05:23:33.434Z,11.18
2019-04-24T05:26:37.493Z,11.56
2019-04-24T05:28:55.449Z,11.65
2019-04-24T05:31:06.206Z,11.96
2019-04-24T05:33:43.908Z,12.49
2019-04-24T05:36:01.029Z,12.71
2019-04-24T05:41:18.787Z,12.67
2019-04-24T05:49:03.681Z,13.81
2019-04-24T05:51:36.301Z,13.99
2019-04-24T05:54:21.784Z,14.48
2019-04-24T06:04:46.471Z,14.64
2019-04-24T06:10:27.034Z,14.98
2019-04-24T06:15:56.231Z,15.60
2019-04-24T06:21:11.407Z,15.85
2019-04-24T06:36:48.472Z,17.30
2019-04-24T06:39:16.503Z,17.18
2019-04-24T06:41:45.879Z,17.86
2019-04-24T06:44:16.685Z,17.53
2019-04-24T06:46:58.848Z,17.94
2019-04-24T06:51:40.701Z,18.42
2019-04-24T06:54:11.636Z,18.27
2019-04-24T06:59:16.661Z,19.21
2019-04-24T07:01:58.496Z,19.18
2019-04-24T07:04:50.121Z,19.35
2019-04-24T07:06:54.811Z,19.61
2019-04-24T07:09:41.496Z,19.85
2019-04-24T07:12:06.314Z,20.03
2019-04-24T07:14:43.668Z,20.36
2019-04-24T07:24:51.794Z,20.50
2019-04-24T07:27:30.970Z,19.71
2019-04-24T07:30:12.600Z,19.20
2019-04-24T07:32:42.303Z,18.92
2019-04-24T07:40:31.769Z,20.76
2019-04-24T07:43:07.558Z,20.30
2019-04-24T07:45:33.977Z,20.27
2019-04-24T07:47:55.416Z,20.37
2019-04-24T07:51:02.088Z,20.65
2019-04-24T07:53:56.555Z,19.92
2019-04-24T08:01:14.614Z,20.09
2019-04-24T08:03:57.391Z,21.54
2019-04-24T08:06:23.739Z,22.38
2019-04-24T08:08:57.083Z,21.93
2019-04-24T08:11:18.603Z,21.52
2019-04-24T08:13:57.226Z,21.59
2019-04-24T08:16:32.417Z,21.09
2019-04-24T08:18:38.210Z,20.70
2019-04-24T08:21:13.574Z,20.65
2019-04-24T08:26:22.647Z,22.14
2019-04-24T08:36:25.188Z,21.46
2019-04-24T08:39:26.731Z,21.51
2019-04-24T08:41:40.447Z,21.71
2019-04-24T08:44:06.882Z,21.35
2019-04-24T08:46:43.124Z,21.72
2019-04-24T08:51:53.422Z,21.25
2019-04-24T08:54:07.112Z,21.30
2019-04-24T08:56:53.941Z,21.62
2019-04-24T08:59:22.756Z,21.92
2019-04-24T09:01:48.742Z,21.54
2019-04-24T09:04:48.371Z,21.92
2019-04-24T09:09:50.470Z,22.49
2019-04-24T09:12:34.907Z,22.16
2019-04-24T09:14:41.964Z,21.62
2019-04-24T09:20:07.862Z,22.80
2019-04-24T09:25:07.334Z,22.99
2019-04-24T09:27:39.595Z,22.23
2019-04-24T09:30:17.584Z,22.68
2019-04-24T09:32:54.184Z,22.74
2019-04-24T09:35:57.962Z,22.35
2019-04-24T09:37:58.358Z,22.34
2019-04-24T09:41:03.426Z,21.99
2019-04-24T09:45:50.732Z,23.25
2019-04-24T09:48:19.845Z,23.87
2019-04-24T09:50:51.001Z,23.30
2019-04-24T09:53:42.561Z,22.91
2019-04-24T09:58:47.342Z,23.88
2019-04-24T10:06:20.749Z,22.17
2019-04-24T10:08:43.086Z,22.80
2019-04-24T10:11:22.032Z,22.72
2019-04-24T10:13:51.648Z,22.34
2019-04-24T10:16:22.680Z,22.24
2019-04-24T10:19:11.872Z,21.82
2019-04-24T10:21:33.275Z,22.36
2019-04-24T10:26:30.480Z,22.50
2019-04-24T10:31:55.744Z,22.06
2019-04-24T10:34:20.969Z,22.63
2019-04-24T10:37:03.034Z,22.51
2019-04-24T10:42:33.863Z,22.94
2019-04-24T10:45:15.041Z,22.38
2019-04-24T10:48:00.358Z,22.45
2019-04-24T10:50:33.449Z,23.15
2019-04-24T10:53:14.629Z,23.37
2019-04-24T10:55:46.332Z,22.58
2019-04-24T11:00:52.034Z,23.25
2019-04-24T11:03:21.011Z,23.44
2019-04-24T11:08:51.850Z,22.34
2019-04-24T11:11:36.016Z,22.36
2019-04-24T11:14:08.556Z,22.91
2019-04-24T11:19:28.077Z,22.63
2019-04-24T11:22:25.493Z,23.10
2019-04-24T11:24:53.718Z,22.43
2019-04-24T11:27:21.859Z,22.50
2019-04-24T11:30:02.160Z,22.00
2019-04-24T11:32:36.823Z,22.03
2019-04-24T11:37:47.280Z,22.49
2019-04-24T11:42:51.080Z,22.60
2019-04-24T11:45:28.264Z,22.18
2019-04-24T11:48:34.665Z,22.13
2019-04-24T11:51:10.005Z,22.39
2019-04-24T11:53:18.394Z,22.77
2019-04-24T12:00:59.543Z,22.98
2019-04-24T12:03:48.217Z,22.30
2019-04-24T12:08:54.565Z,22.55
2019-04-24T12:14:07.516Z,22.63
2019-04-24T12:16:50.127Z,22.35
2019-04-24T12:19:40.806Z,21.82
2019-04-24T12:24:31.777Z,22.34
2019-04-24T12:26:57.173Z,23.13
2019-04-24T12:29:42.197Z,23.12
2019-04-24T12:32:09.671Z,22.74
2019-04-24T12:34:51.504Z,22.63
2019-04-24T12:40:08.253Z,22.62
2019-04-24T12:42:52.881Z,22.99
2019-04-24T12:45:05.331Z,23.18
2019-04-24T12:50:06.949Z,22.38
2019-04-24T12:52:48.137Z,21.91
2019-04-24T12:55:55.768Z,21.76
2019-04-24T13:01:08.216Z,22.12
2019-04-24T13:03:54.620Z,22.13
2019-04-24T13:06:04.294Z,22.48
2019-04-24T13:09:03.230Z,23.03
2019-04-24T13:13:56.350Z,23.06
2019-04-24T13:16:26.738Z,22.99
2019-04-24T13:19:06.400Z,23.02
2019-04-24T13:20:56.050Z,22.97
2019-04-24T13:23:41.532Z,23.31
2019-04-24T13:26:31.443Z,22.90
2019-04-24T13:29:13.501Z,22.37
2019-04-24T13:32:03.615Z,22.25
2019-04-24T13:34:29.432Z,22.39
2019-04-24T13:37:02.754Z,22.29
2019-04-24T13:39:34.538Z,22.05
2019-04-24T13:42:04.818Z,21.76
2019-04-24T13:44:50.018Z,22.01
2019-04-24T13:47:00.015Z,21.84
2019-04-24T13:49:32.363Z,21.51
2019-04-24T13:52:55.156Z,21.40
2019-04-24T13:54:25.128Z,21.55
2019-04-24T13:57:04.052Z,21.56
2019-04-24T13:59:27.113Z,21.59
2019-04-24T14:01:56.419Z,21.47
2019-04-24T14:04:22.020Z,21.51
2019-04-24T14:09:43.443Z,21.22
2019-04-24T14:14:45.824Z,21.49
2019-04-24T14:17:00.988Z,21.40
2019-04-24T14:19:51.938Z,21.97
2019-04-24T14:22:06.096Z,21.81
2019-04-24T14:24:44.235Z,21.65
2019-04-24T14:27:16.658Z,21.50
2019-04-24T14:29:43.181Z,21.61
2019-04-24T14:32:08.328Z,21.42
2019-04-24T14:40:09.410Z,21.45
2019-04-24T14:42:20.743Z,21.41
2019-04-24T14:55:13.054Z,21.26
2019-04-24T14:57:32.779Z,21.48
2019-04-24T15:00:10.821Z,21.61
2019-04-24T15:02:40.889Z,21.37
2019-04-24T15:07:38.804Z,22.10
2019-04-24T15:10:16.247Z,21.70
2019-04-24T15:12:40.390Z,21.72
2019-04-24T15:15:13.665Z,22.08
2019-04-24T15:20:15.643Z,22.02
2019-04-24T15:22:45.221Z,22.12
2019-04-24T15:25:26.551Z,22.07
2019-04-24T15:27:46.957Z,22.09
2019-04-24T15:30:16.374Z,21.78
2019-04-24T15:32:52.302Z,21.70
2019-04-24T15:35:22.373Z,21.75
2019-04-24T15:37:54.359Z,21.89
2019-04-24T15:43:05.493Z,21.83
2019-04-24T15:45:14.424Z,22.13
2019-04-24T15:48:07.969Z,21.71
2019-04-24T15:50:21.645Z,21.96
2019-04-24T15:52:19.907Z,21.72
2019-04-24T15:54:49.022Z,21.65
2019-04-24T15:57:19.206Z,21.53
2019-04-24T16:00:13.504Z,21.64
2019-04-24T16:03:01.590Z,21.01
2019-04-24T16:04:56.641Z,21.01
2019-04-24T16:07:22.886Z,21.05
2019-04-24T16:09:58.945Z,21.14
2019-04-24T16:12:29.222Z,21.05
2019-04-24T16:15:20.760Z,20.94
2019-04-24T16:18:01.004Z,21.07
2019-04-24T16:20:33.113Z,20.82
2019-04-24T16:22:53.994Z,20.91
2019-04-24T16:25:25.713Z,20.67
2019-04-24T16:30:20.830Z,20.55
2019-04-24T16:33:13.575Z,20.54
2019-04-24T16:35:29.249Z,20.35
2019-04-24T16:38:12.841Z,20.23
2019-04-24T16:45:53.683Z,20.08
2019-04-24T16:48:26.695Z,20.05
2019-04-24T16:53:47.977Z,19.87
2019-04-24T16:56:14.094Z,19.77
2019-04-24T17:21:37.085Z,18.78
2019-04-24T17:23:58.256Z,18.61
2019-04-24T17:28:58.589Z,18.39
2019-04-24T17:31:24.739Z,18.51
2019-04-24T17:34:05.351Z,18.41
2019-04-24T17:36:22.301Z,18.50
2019-04-24T17:38:37.424Z,18.33
2019-04-24T17:41:09.635Z,17.98
2019-04-24T17:44:08.333Z,17.96
2019-04-24T17:46:34.164Z,17.93
2019-04-24T17:51:35.518Z,17.74
2019-04-24T17:58:42.967Z,17.60
2019-04-24T18:01:13.440Z,17.34
2019-04-24T18:03:42.303Z,17.38
2019-04-24T18:06:12.524Z,17.18
2019-04-24T18:08:44.792Z,17.14
2019-04-24T18:11:14.104Z,16.94
2019-04-24T18:13:44.543Z,16.62
2019-04-24T18:16:13.733Z,16.64
2019-04-24T18:18:42.852Z,16.35
2019-04-24T18:21:12.563Z,16.42
2019-04-24T18:23:42.384Z,16.28
2019-04-24T18:26:15.598Z,15.91
2019-04-24T18:28:44.339Z,15.88
2019-04-24T18:31:14.151Z,15.87
2019-04-24T18:33:43.100Z,15.77
2019-04-24T18:36:13.958Z,15.79
2019-04-24T18:38:43.077Z,15.71
2019-04-24T18:41:12.842Z,15.73
2019-04-24T18:43:42.112Z,15.67
2019-04-24T18:46:11.237Z,15.53
2019-04-24T18:48:42.090Z,15.37
2019-04-24T18:51:13.297Z,15.54
2019-04-24T18:53:42.167Z,15.33
2019-04-24T18:56:12.316Z,15.34
2019-04-24T18:58:41.717Z,15.19
2019-04-24T19:01:12.097Z,15.12
2019-04-24T19:03:41.627Z,15.13
2019-04-24T19:06:25.120Z,15.13
2019-04-24T19:08:46.105Z,15.17
2019-04-24T19:11:15.173Z,14.97
2019-04-24T19:13:44.772Z,14.91
2019-04-24T19:16:14.184Z,14.93
2019-04-24T19:18:43.302Z,14.94
2019-04-24T19:21:24.999Z,14.81
2019-04-24T19:23:54.001Z,14.70
2019-04-24T19:26:22.725Z,14.65
2019-04-24T19:28:58.035Z,14.64
2019-04-24T19:31:22.464Z,14.67
2019-04-24T19:33:52.697Z,14.78
2019-04-24T19:36:21.347Z,14.72
2019-04-24T19:38:51.790Z,14.64
2019-04-24T19:41:24.073Z,14.78
2019-04-24T19:43:54.274Z,14.69
2019-04-24T19:46:23.857Z,14.61
2019-04-24T19:48:53.191Z,14.55
2019-04-24T19:51:21.831Z,14.62
2019-04-24T19:53:53.406Z,14.57
2019-04-24T19:56:22.167Z,14.63
2019-04-24T19:58:51.294Z,14.48
2019-04-24T20:01:23.500Z,14.29
2019-04-24T20:03:52.864Z,14.13
2019-04-24T20:06:22.503Z,14.04
2019-04-24T20:08:54.068Z,13.91
2019-04-24T20:11:24.527Z,14.05
2019-04-24T20:13:53.601Z,14.29
2019-04-24T20:16:22.944Z,14.27
2019-04-24T20:18:53.889Z,14.23
2019-04-24T20:21:22.587Z,14.20
2019-04-24T20:23:52.271Z,14.12
2019-04-24T20:26:22.320Z,14.13
2019-04-24T20:28:51.804Z,14.25
2019-04-24T20:31:20.737Z,14.33
2019-04-24T20:33:51.385Z,14.31
2019-04-24T20:36:22.515Z,14.09
2019-04-24T20:38:51.899Z,14.04
2019-04-24T20:41:23.115Z,14.06
2019-04-24T20:43:51.920Z,14.16
2019-04-24T20:46:21.809Z,14.08
2019-04-24T20:48:51.240Z,13.85
2019-04-24T20:51:20.706Z,13.69
2019-04-24T20:53:51.685Z,13.60
2019-04-24T20:56:21.012Z,13.77
2019-04-24T20:58:49.809Z,13.90
2019-04-24T21:01:21.895Z,13.84
2019-04-24T21:03:52.019Z,13.64
2019-04-24T21:06:28.538Z,13.62
2019-04-24T21:09:01.911Z,13.71
2019-04-24T21:11:30.586Z,13.68
2019-04-24T21:13:59.318Z,13.74
2019-04-24T21:16:29.151Z,13.70
2019-04-24T21:18:57.947Z,13.70
2019-04-24T21:21:26.948Z,13.44
2019-04-24T21:23:56.624Z,13.34
2019-04-24T21:26:25.517Z,13.45
2019-04-24T21:28:54.208Z,13.53
2019-04-24T21:31:23.045Z,13.51
2019-04-24T21:33:51.711Z,13.49
2019-04-24T21:36:20.399Z,13.55
2019-04-24T21:38:49.440Z,13.47
2019-04-24T21:41:18.146Z,13.43
2019-04-24T21:43:46.865Z,13.43
2019-04-24T21:46:16.226Z,13.44
2019-04-24T21:48:44.914Z,13.29
2019-04-24T21:51:13.547Z,13.12
2019-04-24T21:53:42.218Z,13.04
2019-04-24T21:56:10.961Z,12.98
2019-04-24T21:58:39.628Z,13.04
2019-04-24T22:01:11.332Z,13.26
2019-04-24T22:03:42.470Z,13.22
2019-04-24T22:06:21.716Z,13.24
2019-04-24T22:08:51.383Z,13.11
2019-04-24T22:11:21.562Z,13.23
2019-04-24T22:13:50.180Z,13.18
2019-04-24T22:16:18.993Z,13.03
2019-04-24T22:18:48.797Z,13.05
2019-04-24T22:21:28.350Z,13.06
2019-04-24T22:23:58.559Z,13.16
2019-04-24T22:26:37.946Z,13.30
2019-04-24T22:29:06.620Z,13.35
2019-04-24T22:31:55.186Z,12.99
2019-04-24T22:34:41.845Z,12.93
2019-04-24T22:37:11.041Z,12.75
2019-04-24T22:39:44.003Z,12.61
2019-04-24T22:42:13.723Z,12.64
2019-04-24T22:44:42.379Z,12.57
2019-04-24T22:47:11.070Z,12.61
2019-04-24T22:49:40.852Z,12.56
2019-04-24T22:52:11.581Z,12.65
2019-04-24T22:54:42.811Z,12.55
2019-04-24T22:57:11.460Z,12.49
2019-04-24T22:59:40.318Z,12.48
2019-04-24T23:02:08.997Z,12.31
2019-04-24T23:04:38.139Z,12.34
2019-04-24T23:07:07.878Z,12.34
2019-04-24T23:09:37.765Z,12.33
2019-04-24T23:12:06.715Z,12.40
2019-04-24T23:14:36.956Z,12.50
2019-04-24T23:17:06.490Z,12.55
2019-04-24T23:19:37.345Z,12.37
2019-04-24T23:22:12.988Z,12.44
2019-04-24T23:24:53.622Z,12.40
2019-04-24T23:27:32.437Z,12.37
2019-04-24T23:30:12.487Z,12.28
2019-04-24T23:32:43.412Z,12.20
2019-04-24T23:35:12.452Z,12.17
2019-04-24T23:37:41.890Z,12.14
2019-04-24T23:40:11.842Z,11.97
2019-04-24T23:42:40.779Z,11.88
2019-04-24T23:45:09.495Z,11.88
2019-04-24T23:47:38.909Z,11.65
2019-04-24T23:50:08.514Z,11.69
2019-04-24T23:52:37.350Z,11.68
2019-04-24T23:55:07.400Z,11.68
2019-04-24T23:57:36.437Z,11.57
